sensor_id;sensor_type;location;lat;lon;timestamp;P1;durP1;ratioP1;P2;durP2;ratioP2
62911;SDS011;49111;51.028;4.218;2023-02-01T06:49:12;12.73;;;4.38;;
62911;SDS011;49111;51.028;4.218;2023-02-01T06:51:38;16.05;;;5.20;;
62911;SDS011;49111;51.028;4.218;2023-02-01T06:54:04;19.58;;;4.53;;
62911;SDS011;49111;51.028;4.218;2023-02-01T06:56:30;16.13;;;4.90;;
62911;SDS011;49111;51.028;4.218;2023-02-01T06:58:56;15.40;;;4.00;;
62911;SDS011;49111;51.028;4.218;2023-02-01T07:01:22;17.48;;;5.82;;
62911;SDS011;49111;51.028;4.218;2023-02-01T07:03:50;18.40;;;7.35;;
62911;SDS011;49111;51.028;4.218;2023-02-01T07:06:16;11.82;;;4.32;;
62911;SDS011;49111;51.028;4.218;2023-02-01T07:08:43;15.68;;;5.32;;
62911;SDS011;49111;51.028;4.218;2023-02-01T07:11:10;14.40;;;4.63;;
62911;SDS011;49111;51.028;4.218;2023-02-01T07:13:37;17.35;;;5.25;;
62911;SDS011;49111;51.028;4.218;2023-02-01T07:16:05;16.65;;;4.00;;
62911;SDS011;49111;51.028;4.218;2023-02-01T07:18:34;11.63;;;4.88;;
62911;SDS011;49111;51.028;4.218;2023-02-01T07:20:59;14.95;;;4.85;;
62911;SDS011;49111;51.028;4.218;2023-02-01T07:23:25;13.73;;;4.78;;
62911;SDS011;49111;51.028;4.218;2023-02-01T07:25:55;15.35;;;4.30;;
62911;SDS011;49111;51.028;4.218;2023-02-01T07:28:22;17.40;;;5.68;;
62911;SDS011;49111;51.028;4.218;2023-02-01T07:30:48;16.45;;;4.72;;
62911;SDS011;49111;51.028;4.218;2023-02-01T07:33:23;14.90;;;5.65;;
62911;SDS011;49111;51.028;4.218;2023-02-01T07:35:49;14.43;;;3.90;;
62911;SDS011;49111;51.028;4.218;2023-02-01T07:38:16;13.43;;;4.32;;
62911;SDS011;49111;51.028;4.218;2023-02-01T07:40:42;13.38;;;4.45;;
62911;SDS011;49111;51.028;4.218;2023-02-01T07:43:08;16.08;;;4.63;;
62911;SDS011;49111;51.028;4.218;2023-02-01T07:45:34;16.38;;;5.05;;
62911;SDS011;49111;51.028;4.218;2023-02-01T07:48:01;11.25;;;4.28;;
62911;SDS011;49111;51.028;4.218;2023-02-01T07:50:27;17.50;;;5.38;;
62911;SDS011;49111;51.028;4.218;2023-02-01T07:52:53;12.57;;;4.47;;
62911;SDS011;49111;51.028;4.218;2023-02-01T07:55:20;16.52;;;4.43;;
62911;SDS011;49111;51.028;4.218;2023-02-01T07:57:46;18.52;;;5.05;;
62911;SDS011;49111;51.028;4.218;2023-02-01T08:00:12;13.23;;;4.07;;
62911;SDS011;49111;51.028;4.218;2023-02-01T08:02:58;17.40;;;5.20;;
62911;SDS011;49111;51.028;4.218;2023-02-01T08:05:24;15.48;;;4.32;;
62911;SDS011;49111;51.028;4.218;2023-02-01T08:07:51;13.10;;;4.22;;
62911;SDS011;49111;51.028;4.218;2023-02-01T08:10:17;15.98;;;5.80;;
62911;SDS011;49111;51.028;4.218;2023-02-01T08:12:45;16.88;;;6.07;;
62911;SDS011;49111;51.028;4.218;2023-02-01T08:15:13;21.70;;;6.18;;
62911;SDS011;49111;51.028;4.218;2023-02-01T08:17:45;15.82;;;5.18;;
62911;SDS011;49111;51.028;4.218;2023-02-01T08:20:14;12.38;;;4.68;;
62911;SDS011;49111;51.028;4.218;2023-02-01T08:22:41;17.88;;;6.65;;
62911;SDS011;49111;51.028;4.218;2023-02-01T08:25:07;20.63;;;4.75;;
62911;SDS011;49111;51.028;4.218;2023-02-01T08:27:33;18.08;;;5.32;;
62911;SDS011;49111;51.028;4.218;2023-02-01T08:30:00;15.45;;;4.78;;
62911;SDS011;49111;51.028;4.218;2023-02-01T08:32:26;14.57;;;3.90;;
62911;SDS011;49111;51.028;4.218;2023-02-01T08:34:52;16.23;;;5.35;;
62911;SDS011;49111;51.028;4.218;2023-02-01T08:37:18;17.58;;;4.93;;
62911;SDS011;49111;51.028;4.218;2023-02-01T08:39:44;17.02;;;4.35;;
62911;SDS011;49111;51.028;4.218;2023-02-01T08:42:11;11.60;;;4.47;;
62911;SDS011;49111;51.028;4.218;2023-02-01T08:44:55;15.73;;;4.88;;
62911;SDS011;49111;51.028;4.218;2023-02-01T08:47:21;18.70;;;4.72;;
62911;SDS011;49111;51.028;4.218;2023-02-01T08:49:48;11.10;;;4.28;;
62911;SDS011;49111;51.028;4.218;2023-02-01T08:52:14;13.30;;;5.63;;
62911;SDS011;49111;51.028;4.218;2023-02-01T08:54:40;15.25;;;5.15;;
62911;SDS011;49111;51.028;4.218;2023-02-01T08:57:07;22.58;;;6.50;;
62911;SDS011;49111;51.028;4.218;2023-02-01T08:59:32;15.63;;;5.80;;
62911;SDS011;49111;51.028;4.218;2023-02-01T09:01:58;16.65;;;4.80;;
62911;SDS011;49111;51.028;4.218;2023-02-01T09:04:24;13.68;;;4.18;;
62911;SDS011;49111;51.028;4.218;2023-02-01T09:06:50;18.08;;;5.32;;
62911;SDS011;49111;51.028;4.218;2023-02-01T09:09:16;15.95;;;5.47;;
62911;SDS011;49111;51.028;4.218;2023-02-01T09:11:42;14.77;;;5.53;;
62911;SDS011;49111;51.028;4.218;2023-02-01T09:14:08;21.70;;;4.95;;
62911;SDS011;49111;51.028;4.218;2023-02-01T09:16:33;23.50;;;5.40;;
62911;SDS011;49111;51.028;4.218;2023-02-01T09:18:59;15.57;;;4.55;;
62911;SDS011;49111;51.028;4.218;2023-02-01T09:21:25;19.15;;;5.68;;
62911;SDS011;49111;51.028;4.218;2023-02-01T09:23:51;15.40;;;4.47;;
62911;SDS011;49111;51.028;4.218;2023-02-01T09:26:17;18.20;;;4.45;;
62911;SDS011;49111;51.028;4.218;2023-02-01T09:28:43;15.80;;;5.88;;
62911;SDS011;49111;51.028;4.218;2023-02-01T09:31:09;20.23;;;4.95;;
62911;SDS011;49111;51.028;4.218;2023-02-01T09:33:35;17.92;;;4.78;;
62911;SDS011;49111;51.028;4.218;2023-02-01T09:36:03;15.50;;;4.20;;
62911;SDS011;49111;51.028;4.218;2023-02-01T09:46:53;18.20;;;5.53;;
62911;SDS011;49111;51.028;4.218;2023-02-01T09:49:39;13.98;;;4.00;;
62911;SDS011;49111;51.028;4.218;2023-02-01T09:52:23;11.23;;;3.85;;
62911;SDS011;49111;51.028;4.218;2023-02-01T09:54:56;13.50;;;3.92;;
62911;SDS011;49111;51.028;4.218;2023-02-01T09:57:50;14.57;;;4.28;;
62911;SDS011;49111;51.028;4.218;2023-02-01T10:00:24;11.00;;;4.32;;
62911;SDS011;49111;51.028;4.218;2023-02-01T10:02:54;15.13;;;4.30;;
62911;SDS011;49111;51.028;4.218;2023-02-01T10:05:32;19.88;;;5.65;;
62911;SDS011;49111;51.028;4.218;2023-02-01T10:10:55;11.10;;;3.28;;
62911;SDS011;49111;51.028;4.218;2023-02-01T10:13:51;15.00;;;3.67;;
62911;SDS011;49111;51.028;4.218;2023-02-01T10:16:27;13.93;;;4.53;;
62911;SDS011;49111;51.028;4.218;2023-02-01T10:22:05;15.63;;;3.63;;
62911;SDS011;49111;51.028;4.218;2023-02-01T10:27:12;9.75;;;4.50;;
62911;SDS011;49111;51.028;4.218;2023-02-01T10:29:43;11.90;;;4.63;;
62911;SDS011;49111;51.028;4.218;2023-02-01T10:32:15;8.45;;;3.42;;
62911;SDS011;49111;51.028;4.218;2023-02-01T10:34:46;11.18;;;2.97;;
62911;SDS011;49111;51.028;4.218;2023-02-01T10:39:48;11.68;;;3.53;;
62911;SDS011;49111;51.028;4.218;2023-02-01T10:42:17;13.63;;;4.63;;
62911;SDS011;49111;51.028;4.218;2023-02-01T10:44:46;9.35;;;2.83;;
62911;SDS011;49111;51.028;4.218;2023-02-01T10:47:13;11.90;;;4.40;;
62911;SDS011;49111;51.028;4.218;2023-02-01T10:49:43;5.93;;;3.13;;
62911;SDS011;49111;51.028;4.218;2023-02-01T10:52:24;14.20;;;2.92;;
62911;SDS011;49111;51.028;4.218;2023-02-01T10:55:48;10.18;;;3.05;;
62911;SDS011;49111;51.028;4.218;2023-02-01T10:57:55;10.32;;;3.08;;
62911;SDS011;49111;51.028;4.218;2023-02-01T11:00:23;12.00;;;2.92;;
62911;SDS011;49111;51.028;4.218;2023-02-01T11:02:48;10.18;;;2.88;;
62911;SDS011;49111;51.028;4.218;2023-02-01T11:05:15;14.05;;;4.35;;
62911;SDS011;49111;51.028;4.218;2023-02-01T11:07:46;13.93;;;4.20;;
62911;SDS011;49111;51.028;4.218;2023-02-01T11:10:35;22.50;;;4.97;;
62911;SDS011;49111;51.028;4.218;2023-02-01T11:13:07;11.30;;;2.97;;
62911;SDS011;49111;51.028;4.218;2023-02-01T11:15:43;12.23;;;2.85;;
62911;SDS011;49111;51.028;4.218;2023-02-01T11:18:20;15.73;;;4.35;;
62911;SDS011;49111;51.028;4.218;2023-02-01T11:20:52;14.30;;;3.80;;
62911;SDS011;49111;51.028;4.218;2023-02-01T11:23:21;15.70;;;3.10;;
62911;SDS011;49111;51.028;4.218;2023-02-01T11:25:51;8.63;;;2.83;;
62911;SDS011;49111;51.028;4.218;2023-02-01T11:28:20;9.93;;;3.10;;
62911;SDS011;49111;51.028;4.218;2023-02-01T11:30:52;9.63;;;3.60;;
62911;SDS011;49111;51.028;4.218;2023-02-01T11:33:22;8.60;;;2.88;;
62911;SDS011;49111;51.028;4.218;2023-02-01T11:35:55;12.63;;;2.90;;
62911;SDS011;49111;51.028;4.218;2023-02-01T11:38:30;14.55;;;3.63;;
62911;SDS011;49111;51.028;4.218;2023-02-01T11:43:53;8.50;;;3.05;;
62911;SDS011;49111;51.028;4.218;2023-02-01T11:46:24;8.45;;;3.00;;
62911;SDS011;49111;51.028;4.218;2023-02-01T11:49:20;10.35;;;2.72;;
62911;SDS011;49111;51.028;4.218;2023-02-01T12:11:37;10.05;;;2.40;;
62911;SDS011;49111;51.028;4.218;2023-02-01T12:19:42;10.35;;;3.22;;
62911;SDS011;49111;51.028;4.218;2023-02-01T12:28:36;9.70;;;2.33;;
62911;SDS011;49111;51.028;4.218;2023-02-01T12:31:15;11.65;;;2.17;;
62911;SDS011;49111;51.028;4.218;2023-02-01T12:39:30;9.70;;;2.10;;
62911;SDS011;49111;51.028;4.218;2023-02-01T12:42:14;7.15;;;2.10;;
62911;SDS011;49111;51.028;4.218;2023-02-01T12:44:52;11.80;;;2.35;;
62911;SDS011;49111;51.028;4.218;2023-02-01T12:47:51;9.98;;;2.67;;
62911;SDS011;49111;51.028;4.218;2023-02-01T12:50:26;9.18;;;2.35;;
62911;SDS011;49111;51.028;4.218;2023-02-01T12:53:06;9.82;;;2.60;;
62911;SDS011;49111;51.028;4.218;2023-02-01T12:55:39;7.82;;;2.38;;
62911;SDS011;49111;51.028;4.218;2023-02-01T13:00:51;9.35;;;2.55;;
62911;SDS011;49111;51.028;4.218;2023-02-01T13:11:57;9.75;;;2.65;;
62911;SDS011;49111;51.028;4.218;2023-02-01T13:14:39;9.45;;;2.13;;
62911;SDS011;49111;51.028;4.218;2023-02-01T13:17:25;7.32;;;2.35;;
62911;SDS011;49111;51.028;4.218;2023-02-01T13:23:02;10.07;;;2.40;;
62911;SDS011;49111;51.028;4.218;2023-02-01T13:25:50;8.00;;;2.60;;
62911;SDS011;49111;51.028;4.218;2023-02-01T13:36:23;7.88;;;1.95;;
62911;SDS011;49111;51.028;4.218;2023-02-01T13:41:28;8.70;;;2.28;;
62911;SDS011;49111;51.028;4.218;2023-02-01T13:44:03;6.90;;;2.60;;
62911;SDS011;49111;51.028;4.218;2023-02-01T13:46:39;10.15;;;3.65;;
62911;SDS011;49111;51.028;4.218;2023-02-01T13:49:14;6.68;;;2.67;;
62911;SDS011;49111;51.028;4.218;2023-02-01T13:51:45;9.57;;;2.58;;
62911;SDS011;49111;51.028;4.218;2023-02-01T13:54:24;8.15;;;2.17;;
62911;SDS011;49111;51.028;4.218;2023-02-01T13:56:58;6.07;;;2.08;;
62911;SDS011;49111;51.028;4.218;2023-02-01T14:05:04;5.32;;;2.10;;
62911;SDS011;49111;51.028;4.218;2023-02-01T14:21:18;8.20;;;2.47;;
62911;SDS011;49111;51.028;4.218;2023-02-01T14:26:21;11.65;;;2.63;;
62911;SDS011;49111;51.028;4.218;2023-02-01T14:28:50;9.80;;;3.15;;
62911;SDS011;49111;51.028;4.218;2023-02-01T14:31:31;12.95;;;2.28;;
62911;SDS011;49111;51.028;4.218;2023-02-01T14:34:10;9.80;;;2.60;;
62911;SDS011;49111;51.028;4.218;2023-02-01T14:36:41;7.70;;;2.72;;
62911;SDS011;49111;51.028;4.218;2023-02-01T14:39:27;8.00;;;2.40;;
62911;SDS011;49111;51.028;4.218;2023-02-01T14:41:58;8.75;;;2.25;;
62911;SDS011;49111;51.028;4.218;2023-02-01T14:44:29;11.32;;;2.92;;
62911;SDS011;49111;51.028;4.218;2023-02-01T14:49:30;6.43;;;2.90;;
62911;SDS011;49111;51.028;4.218;2023-02-01T14:51:58;8.35;;;2.53;;
62911;SDS011;49111;51.028;4.218;2023-02-01T14:54:27;8.90;;;3.08;;
62911;SDS011;49111;51.028;4.218;2023-02-01T14:56:53;11.18;;;2.50;;
62911;SDS011;49111;51.028;4.218;2023-02-01T14:59:20;10.57;;;2.83;;
62911;SDS011;49111;51.028;4.218;2023-02-01T15:01:55;9.70;;;3.85;;
62911;SDS011;49111;51.028;4.218;2023-02-01T15:04:25;10.40;;;2.63;;
62911;SDS011;49111;51.028;4.218;2023-02-01T15:06:55;11.60;;;3.38;;
62911;SDS011;49111;51.028;4.218;2023-02-01T15:09:37;18.27;;;3.58;;
62911;SDS011;49111;51.028;4.218;2023-02-01T15:14:41;10.38;;;2.53;;
62911;SDS011;49111;51.028;4.218;2023-02-01T15:17:31;11.63;;;2.83;;
62911;SDS011;49111;51.028;4.218;2023-02-01T15:20:03;13.88;;;3.38;;
62911;SDS011;49111;51.028;4.218;2023-02-01T15:22:41;14.35;;;3.38;;
62911;SDS011;49111;51.028;4.218;2023-02-01T15:25:18;8.23;;;3.17;;
62911;SDS011;49111;51.028;4.218;2023-02-01T15:27:45;15.88;;;4.53;;
62911;SDS011;49111;51.028;4.218;2023-02-01T15:32:47;11.85;;;3.63;;
62911;SDS011;49111;51.028;4.218;2023-02-01T15:43:48;14.02;;;3.72;;
62911;SDS011;49111;51.028;4.218;2023-02-01T15:49:04;8.85;;;2.90;;
62911;SDS011;49111;51.028;4.218;2023-02-01T15:51:43;8.20;;;2.25;;
62911;SDS011;49111;51.028;4.218;2023-02-01T15:54:16;12.55;;;3.83;;
62911;SDS011;49111;51.028;4.218;2023-02-01T15:57:09;10.02;;;2.63;;
62911;SDS011;49111;51.028;4.218;2023-02-01T15:59:37;15.90;;;2.78;;
62911;SDS011;49111;51.028;4.218;2023-02-01T16:05:33;14.82;;;2.78;;
62911;SDS011;49111;51.028;4.218;2023-02-01T16:10:39;12.57;;;2.97;;
62911;SDS011;49111;51.028;4.218;2023-02-01T16:13:07;6.97;;;2.92;;
62911;SDS011;49111;51.028;4.218;2023-02-01T16:15:33;14.80;;;4.35;;
62911;SDS011;49111;51.028;4.218;2023-02-01T16:17:58;12.75;;;3.03;;
62911;SDS011;49111;51.028;4.218;2023-02-01T16:20:24;9.20;;;3.17;;
62911;SDS011;49111;51.028;4.218;2023-02-01T16:22:50;8.95;;;3.13;;
62911;SDS011;49111;51.028;4.218;2023-02-01T16:25:15;10.43;;;3.78;;
62911;SDS011;49111;51.028;4.218;2023-02-01T16:27:41;10.30;;;2.88;;
62911;SDS011;49111;51.028;4.218;2023-02-01T16:30:07;13.65;;;4.20;;
62911;SDS011;49111;51.028;4.218;2023-02-01T16:32:35;13.40;;;3.97;;
62911;SDS011;49111;51.028;4.218;2023-02-01T16:35:10;11.93;;;3.20;;
62911;SDS011;49111;51.028;4.218;2023-02-01T16:37:50;9.15;;;3.30;;
62911;SDS011;49111;51.028;4.218;2023-02-01T16:40:16;15.23;;;3.05;;
62911;SDS011;49111;51.028;4.218;2023-02-01T16:42:43;12.70;;;3.13;;
62911;SDS011;49111;51.028;4.218;2023-02-01T16:45:11;10.32;;;3.30;;
62911;SDS011;49111;51.028;4.218;2023-02-01T16:47:37;11.32;;;3.78;;
62911;SDS011;49111;51.028;4.218;2023-02-01T16:50:05;14.48;;;3.65;;
62911;SDS011;49111;51.028;4.218;2023-02-01T16:52:41;12.40;;;3.55;;
62911;SDS011;49111;51.028;4.218;2023-02-01T16:55:14;13.68;;;4.13;;
62911;SDS011;49111;51.028;4.218;2023-02-01T16:57:41;13.20;;;3.70;;
62911;SDS011;49111;51.028;4.218;2023-02-01T17:00:08;13.02;;;3.88;;
62911;SDS011;49111;51.028;4.218;2023-02-01T17:02:35;10.00;;;3.60;;
62911;SDS011;49111;51.028;4.218;2023-02-01T17:05:00;14.20;;;3.72;;
62911;SDS011;49111;51.028;4.218;2023-02-01T17:07:27;16.55;;;4.20;;
62911;SDS011;49111;51.028;4.218;2023-02-01T17:09:53;18.35;;;4.82;;
62911;SDS011;49111;51.028;4.218;2023-02-01T17:12:22;10.15;;;4.25;;
62911;SDS011;49111;51.028;4.218;2023-02-01T17:14:48;9.70;;;3.90;;
62911;SDS011;49111;51.028;4.218;2023-02-01T17:17:13;14.25;;;3.75;;
62911;SDS011;49111;51.028;4.218;2023-02-01T17:19:39;12.68;;;4.68;;
62911;SDS011;49111;51.028;4.218;2023-02-01T17:22:05;21.27;;;4.32;;
62911;SDS011;49111;51.028;4.218;2023-02-01T17:24:31;15.73;;;3.40;;
62911;SDS011;49111;51.028;4.218;2023-02-01T17:26:57;14.40;;;3.38;;
62911;SDS011;49111;51.028;4.218;2023-02-01T17:29:23;14.95;;;3.85;;
62911;SDS011;49111;51.028;4.218;2023-02-01T17:31:50;13.63;;;3.67;;
62911;SDS011;49111;51.028;4.218;2023-02-01T17:34:17;10.90;;;3.50;;
62911;SDS011;49111;51.028;4.218;2023-02-01T17:36:44;13.23;;;3.55;;
62911;SDS011;49111;51.028;4.218;2023-02-01T17:39:12;10.25;;;3.70;;
62911;SDS011;49111;51.028;4.218;2023-02-01T17:41:58;12.07;;;4.18;;
62911;SDS011;49111;51.028;4.218;2023-02-01T17:44:25;13.35;;;4.05;;
62911;SDS011;49111;51.028;4.218;2023-02-01T17:46:51;12.20;;;4.47;;
62911;SDS011;49111;51.028;4.218;2023-02-01T17:49:16;17.50;;;5.32;;
62911;SDS011;49111;51.028;4.218;2023-02-01T17:51:42;16.00;;;4.32;;
62911;SDS011;49111;51.028;4.218;2023-02-01T17:54:11;14.57;;;3.50;;
62911;SDS011;49111;51.028;4.218;2023-02-01T17:56:44;13.45;;;3.58;;
62911;SDS011;49111;51.028;4.218;2023-02-01T17:59:10;14.23;;;3.95;;
62911;SDS011;49111;51.028;4.218;2023-02-01T18:01:36;12.85;;;4.30;;
62911;SDS011;49111;51.028;4.218;2023-02-01T18:04:02;10.30;;;4.65;;
62911;SDS011;49111;51.028;4.218;2023-02-01T18:06:28;23.15;;;5.03;;
62911;SDS011;49111;51.028;4.218;2023-02-01T18:08:59;15.20;;;3.95;;
62911;SDS011;49111;51.028;4.218;2023-02-01T18:11:24;13.98;;;3.65;;
62911;SDS011;49111;51.028;4.218;2023-02-01T18:13:51;15.35;;;3.75;;
62911;SDS011;49111;51.028;4.218;2023-02-01T18:16:20;18.30;;;4.25;;
62911;SDS011;49111;51.028;4.218;2023-02-01T18:18:51;15.63;;;4.93;;
62911;SDS011;49111;51.028;4.218;2023-02-01T18:21:18;13.25;;;3.95;;
62911;SDS011;49111;51.028;4.218;2023-02-01T18:23:46;12.50;;;4.03;;
62911;SDS011;49111;51.028;4.218;2023-02-01T18:26:13;11.98;;;4.53;;
62911;SDS011;49111;51.028;4.218;2023-02-01T18:28:40;13.88;;;5.20;;
62911;SDS011;49111;51.028;4.218;2023-02-01T18:31:07;17.02;;;5.05;;
62911;SDS011;49111;51.028;4.218;2023-02-01T18:33:49;12.57;;;4.50;;
62911;SDS011;49111;51.028;4.218;2023-02-01T18:36:16;15.00;;;4.35;;
62911;SDS011;49111;51.028;4.218;2023-02-01T18:38:42;12.70;;;4.05;;
62911;SDS011;49111;51.028;4.218;2023-02-01T18:41:10;13.05;;;3.75;;
62911;SDS011;49111;51.028;4.218;2023-02-01T18:43:42;16.63;;;4.18;;
62911;SDS011;49111;51.028;4.218;2023-02-01T18:46:08;16.15;;;4.80;;
62911;SDS011;49111;51.028;4.218;2023-02-01T18:48:35;12.13;;;4.28;;
62911;SDS011;49111;51.028;4.218;2023-02-01T18:51:01;12.00;;;4.32;;
62911;SDS011;49111;51.028;4.218;2023-02-01T18:53:27;11.02;;;4.30;;
62911;SDS011;49111;51.028;4.218;2023-02-01T18:55:54;11.35;;;4.25;;
62911;SDS011;49111;51.028;4.218;2023-02-01T18:58:21;16.48;;;5.72;;
62911;SDS011;49111;51.028;4.218;2023-02-01T19:00:50;11.00;;;4.45;;
62911;SDS011;49111;51.028;4.218;2023-02-01T19:03:17;23.45;;;4.97;;
62911;SDS011;49111;51.028;4.218;2023-02-01T19:05:45;14.02;;;4.13;;
62911;SDS011;49111;51.028;4.218;2023-02-01T19:08:11;12.27;;;4.45;;
62911;SDS011;49111;51.028;4.218;2023-02-01T19:10:37;16.00;;;4.95;;
62911;SDS011;49111;51.028;4.218;2023-02-01T19:13:03;16.05;;;4.00;;
62911;SDS011;49111;51.028;4.218;2023-02-01T19:15:29;13.02;;;4.25;;
62911;SDS011;49111;51.028;4.218;2023-02-01T19:17:56;13.60;;;4.22;;
62911;SDS011;49111;51.028;4.218;2023-02-01T19:20:23;17.98;;;5.15;;
62911;SDS011;49111;51.028;4.218;2023-02-01T19:22:50;14.25;;;5.07;;
62911;SDS011;49111;51.028;4.218;2023-02-01T19:25:27;12.45;;;5.07;;
